createdAt,value
2023-12-17T00:00:35.093Z,87.98
2023-12-17T00:03:17.520Z,88.61
2023-12-17T00:05:46.710Z,88.22
2023-12-17T00:08:13.146Z,87.28
2023-12-17T00:10:39.511Z,88.14
2023-12-17T00:13:06.458Z,86.63
2023-12-17T00:15:32.863Z,86.64
2023-12-17T00:17:59.363Z,87.07
2023-12-17T00:20:25.848Z,87.89
2023-12-17T00:22:52.196Z,87.25
2023-12-17T00:25:18.565Z,87.83
2023-12-17T00:27:44.973Z,88.11
2023-12-17T00:30:11.633Z,89.21
2023-12-17T00:32:38.134Z,89.35
2023-12-17T00:35:05.081Z,87.91
2023-12-17T00:37:31.425Z,88.65
2023-12-17T00:39:57.834Z,88.47
2023-12-17T00:42:24.221Z,89.31
2023-12-17T00:44:50.731Z,88.86
2023-12-17T00:47:17.172Z,88.76
2023-12-17T00:49:43.555Z,88.37
2023-12-17T00:52:09.949Z,86.87
2023-12-17T00:54:36.371Z,89.26
2023-12-17T00:57:03.441Z,89.08
2023-12-17T00:59:29.866Z,89.09
2023-12-17T01:01:56.262Z,88.49
2023-12-17T01:04:22.638Z,88.24
2023-12-17T01:06:50.774Z,88.78
2023-12-17T01:09:18.840Z,88.46
2023-12-17T01:11:45.277Z,87.55
2023-12-17T01:14:11.756Z,87.38
2023-12-17T01:16:38.156Z,88.73
2023-12-17T01:19:04.624Z,88.22
2023-12-17T01:21:31.154Z,88.28
2023-12-17T01:23:59.901Z,87.94
2023-12-17T01:26:27.721Z,88.72
2023-12-17T01:28:54.304Z,89.50
2023-12-17T01:31:20.711Z,89.28
2023-12-17T01:33:47.298Z,88.89
2023-12-17T01:36:14.083Z,87.70
2023-12-17T01:38:40.535Z,89.01
2023-12-17T01:41:09.898Z,89.19
2023-12-17T01:43:36.385Z,88.91
2023-12-17T01:46:05.175Z,88.01
2023-12-17T01:48:32.325Z,89.01
2023-12-17T01:50:59.105Z,87.24
2023-12-17T01:53:26.673Z,89.05
2023-12-17T01:55:53.697Z,89.60
2023-12-17T01:58:22.877Z,88.07
2023-12-17T02:00:52.512Z,89.44
2023-12-17T02:03:19.070Z,87.98
2023-12-17T02:05:47.162Z,88.60
2023-12-17T02:08:13.672Z,88.70
2023-12-17T02:10:40.248Z,89.45
2023-12-17T02:13:10.776Z,89.31
2023-12-17T02:15:40.005Z,88.82
2023-12-17T02:18:06.789Z,89.52
2023-12-17T02:20:35.541Z,89.21
2023-12-17T02:23:05.762Z,91.38
2023-12-17T02:25:32.957Z,89.35
2023-12-17T02:27:59.988Z,91.05
2023-12-17T02:30:26.642Z,92.13
2023-12-17T02:32:53.210Z,92.09
2023-12-17T02:35:19.694Z,92.26
2023-12-17T02:37:46.035Z,89.96
2023-12-17T02:40:12.575Z,90.89
2023-12-17T02:42:38.962Z,92.23
2023-12-17T02:45:05.975Z,92.39
2023-12-17T02:47:32.698Z,93.28
2023-12-17T02:49:59.222Z,92.94
2023-12-17T02:52:27.195Z,92.08
2023-12-17T02:54:53.530Z,93.71
2023-12-17T02:57:21.768Z,93.71
2023-12-17T02:59:48.152Z,93.33
2023-12-17T03:02:15.074Z,93.72
2023-12-17T03:04:41.643Z,94.14
2023-12-17T03:07:08.027Z,93.35
2023-12-17T03:09:34.448Z,94.45
2023-12-17T03:12:00.877Z,93.48
2023-12-17T03:14:27.289Z,94.09
2023-12-17T03:16:53.737Z,95.18
2023-12-17T03:19:20.162Z,94.98
2023-12-17T03:21:46.840Z,95.25
2023-12-17T03:24:13.476Z,93.79
2023-12-17T03:26:39.847Z,92.36
2023-12-17T03:29:06.238Z,93.03
2023-12-17T03:31:32.671Z,93.28
2023-12-17T03:33:59.260Z,93.24
2023-12-17T03:36:26.395Z,92.99
2023-12-17T03:38:52.899Z,92.66
2023-12-17T03:41:23.810Z,91.43
2023-12-17T03:43:52.534Z,92.39
2023-12-17T03:46:19.987Z,92.53
2023-12-17T03:48:46.753Z,92.23
2023-12-17T03:51:13.363Z,90.68
2023-12-17T03:53:39.860Z,91.51
2023-12-17T03:56:13.705Z,91.90
2023-12-17T03:58:40.774Z,91.78
2023-12-17T04:01:08.768Z,92.42
2023-12-17T04:03:35.796Z,92.94
2023-12-17T04:06:03.667Z,93.28
2023-12-17T04:08:30.648Z,94.21
2023-12-17T04:10:57.018Z,92.76
2023-12-17T04:13:23.363Z,93.97
2023-12-17T04:15:49.716Z,92.63
2023-12-17T04:18:16.277Z,93.97
2023-12-17T04:20:42.865Z,93.54
2023-12-17T04:23:09.330Z,92.75
2023-12-17T04:25:35.683Z,90.40
2023-12-17T04:28:02.097Z,90.70
2023-12-17T04:30:28.502Z,90.86
2023-12-17T04:32:55.054Z,91.61
2023-12-17T04:35:21.493Z,93.22
2023-12-17T04:37:47.840Z,93.24
2023-12-17T04:40:15.665Z,92.57
2023-12-17T04:42:42.114Z,93.27
2023-12-17T04:45:09.430Z,93.96
2023-12-17T04:47:35.890Z,90.41
2023-12-17T04:50:02.345Z,93.42
2023-12-17T04:52:28.686Z,94.30
2023-12-17T04:54:55.051Z,93.73
2023-12-17T04:57:21.808Z,94.89
2023-12-17T04:59:48.277Z,94.84
2023-12-17T05:02:14.769Z,94.39
2023-12-17T05:04:41.209Z,95.18
2023-12-17T05:07:07.593Z,94.73
2023-12-17T05:09:34.010Z,93.20
2023-12-17T05:12:00.416Z,93.98
2023-12-17T05:14:26.804Z,94.14
2023-12-17T05:16:53.163Z,95.58
2023-12-17T05:19:19.670Z,95.50
2023-12-17T05:21:46.231Z,94.28
2023-12-17T05:24:12.661Z,96.34
2023-12-17T05:26:39.068Z,94.53
2023-12-17T05:29:05.436Z,95.31
2023-12-17T05:31:31.894Z,96.00
2023-12-17T05:33:58.462Z,95.69
2023-12-17T05:36:24.931Z,92.23
2023-12-17T05:38:51.416Z,94.95
2023-12-17T05:41:17.907Z,95.46
2023-12-17T05:43:44.335Z,94.86
2023-12-17T05:46:10.714Z,94.02
2023-12-17T05:48:37.327Z,94.33
2023-12-17T05:51:08.229Z,93.88
2023-12-17T05:53:41.214Z,93.89
2023-12-17T05:56:10.599Z,94.08
2023-12-17T05:58:36.967Z,94.85
2023-12-17T06:01:03.899Z,94.99
2023-12-17T06:03:31.379Z,94.67
2023-12-17T06:05:58.053Z,93.36
2023-12-17T06:08:24.568Z,92.27
2023-12-17T06:10:50.951Z,91.31
2023-12-17T06:13:17.355Z,93.15
2023-12-17T06:15:44.065Z,93.77
2023-12-17T06:18:10.637Z,93.85
2023-12-17T06:20:37.095Z,93.40
2023-12-17T06:23:03.464Z,91.89
2023-12-17T06:25:29.847Z,92.02
2023-12-17T06:27:56.317Z,90.74
2023-12-17T06:30:22.843Z,92.77
2023-12-17T06:32:49.461Z,91.28
2023-12-17T06:35:15.931Z,91.83
2023-12-17T06:37:42.447Z,90.19
2023-12-17T06:40:10.495Z,91.21
2023-12-17T06:42:36.863Z,91.76
2023-12-17T06:45:03.632Z,90.05
2023-12-17T06:47:30.198Z,89.07
2023-12-17T06:49:56.690Z,90.80
2023-12-17T06:52:23.146Z,90.41
2023-12-17T06:54:49.533Z,91.34
2023-12-17T06:57:16.418Z,90.94
2023-12-17T06:59:43.343Z,91.05
2023-12-17T07:02:09.784Z,90.36
2023-12-17T07:04:36.256Z,91.50
2023-12-17T07:07:02.644Z,92.38
2023-12-17T07:09:29.109Z,91.63
2023-12-17T07:11:55.530Z,91.49
2023-12-17T07:14:22.699Z,92.34
2023-12-17T07:16:49.105Z,92.34
2023-12-17T07:19:15.568Z,92.18
2023-12-17T07:21:42.435Z,94.40
2023-12-17T07:24:08.918Z,93.25
2023-12-17T07:26:35.372Z,90.31
2023-12-17T07:29:01.758Z,89.17
2023-12-17T07:31:28.181Z,89.51
2023-12-17T07:33:54.732Z,89.88
2023-12-17T07:36:21.357Z,89.81
2023-12-17T07:38:48.454Z,88.79
2023-12-17T07:41:14.932Z,90.03
2023-12-17T07:43:41.439Z,90.58
2023-12-17T07:46:08.506Z,92.12
2023-12-17T07:48:34.975Z,90.52
2023-12-17T07:51:03.102Z,91.50
2023-12-17T07:53:29.930Z,92.69
2023-12-17T07:56:00.247Z,92.05
2023-12-17T07:58:26.721Z,91.92
2023-12-17T08:00:53.809Z,91.43
2023-12-17T08:03:25.085Z,91.37
2023-12-17T08:05:52.201Z,92.18
2023-12-17T08:08:18.627Z,91.00
2023-12-17T08:10:45.055Z,91.39
2023-12-17T08:13:11.882Z,90.68
2023-12-17T08:15:38.238Z,90.28
2023-12-17T08:18:04.755Z,89.72
2023-12-17T08:20:31.167Z,91.50
2023-12-17T08:22:57.578Z,90.89
2023-12-17T08:25:23.994Z,90.97
2023-12-17T08:27:50.398Z,90.20
2023-12-17T08:30:18.913Z,90.70
2023-12-17T08:32:46.846Z,90.68
2023-12-17T08:35:13.383Z,92.02
2023-12-17T08:37:40.022Z,90.16
2023-12-17T08:40:06.944Z,90.66
2023-12-17T08:42:33.370Z,91.67
2023-12-17T08:44:59.870Z,90.72
2023-12-17T08:47:26.403Z,90.32
2023-12-17T08:49:52.960Z,90.78
2023-12-17T08:52:19.395Z,90.99
2023-12-17T08:54:45.857Z,91.42
2023-12-17T08:57:12.242Z,91.07
2023-12-17T08:59:43.996Z,90.39
2023-12-17T09:02:10.420Z,91.13
2023-12-17T09:04:36.787Z,90.46
2023-12-17T09:07:03.237Z,90.42
2023-12-17T09:09:29.657Z,91.28
2023-12-17T09:11:56.097Z,89.78
2023-12-17T09:14:22.468Z,91.37
2023-12-17T09:16:48.855Z,90.00
2023-12-17T09:19:15.309Z,89.11
2023-12-17T09:21:41.741Z,90.64
2023-12-17T09:24:08.332Z,90.37
2023-12-17T09:26:34.829Z,90.64
2023-12-17T09:29:02.720Z,89.96
2023-12-17T09:31:29.782Z,91.60
2023-12-17T09:33:56.232Z,90.26
2023-12-17T09:36:24.302Z,89.19
2023-12-17T09:38:50.778Z,89.88
2023-12-17T09:41:17.211Z,91.76
2023-12-17T09:43:44.201Z,90.31
2023-12-17T09:46:10.871Z,88.88
2023-12-17T09:48:38.738Z,89.89
2023-12-17T09:51:05.695Z,88.68
2023-12-17T09:53:35.232Z,87.90
2023-12-17T09:56:01.763Z,88.79
2023-12-17T09:58:28.364Z,88.11
2023-12-17T10:00:54.983Z,88.89
2023-12-17T10:03:22.496Z,88.16
2023-12-17T10:05:55.277Z,87.36
2023-12-17T10:08:23.720Z,87.45
2023-12-17T10:10:50.281Z,85.83
2023-12-17T10:13:21.531Z,88.08
2023-12-17T10:15:53.229Z,86.30
2023-12-17T10:18:20.298Z,85.54
2023-12-17T10:20:48.015Z,85.20
2023-12-17T10:23:15.001Z,84.74
2023-12-17T10:25:42.312Z,85.67
2023-12-17T10:28:10.873Z,84.55
2023-12-17T10:30:38.492Z,84.54
2023-12-17T10:33:12.162Z,84.96
2023-12-17T10:35:39.088Z,84.72
2023-12-17T10:38:09.216Z,83.63
2023-12-17T10:40:37.878Z,82.32
2023-12-17T10:43:05.957Z,81.12
2023-12-17T10:45:34.016Z,80.46
2023-12-17T10:48:01.447Z,80.13
2023-12-17T10:50:28.374Z,80.69
2023-12-17T10:52:55.164Z,80.98
2023-12-17T10:55:23.261Z,79.41
2023-12-17T10:58:10.181Z,80.68
2023-12-17T11:00:38.618Z,80.27
2023-12-17T11:03:07.527Z,79.12
2023-12-17T11:05:34.206Z,79.57
2023-12-17T11:08:00.773Z,80.29
2023-12-17T11:10:27.560Z,77.79
2023-12-17T11:12:55.703Z,78.17
2023-12-17T11:15:23.729Z,75.93
2023-12-17T11:17:55.246Z,76.39
2023-12-17T11:20:33.045Z,75.06
2023-12-17T11:23:01.722Z,73.50
2023-12-17T11:25:35.885Z,73.89
2023-12-17T11:28:03.988Z,73.46
2023-12-17T11:30:32.652Z,71.85
2023-12-17T11:33:00.891Z,72.42
2023-12-17T11:35:32.018Z,74.92
2023-12-17T11:37:58.668Z,73.53
2023-12-17T11:40:25.445Z,72.37
2023-12-17T11:43:03.822Z,73.83
2023-12-17T11:45:36.158Z,70.14
2023-12-17T11:48:10.826Z,71.37
2023-12-17T11:50:47.633Z,70.74
2023-12-17T11:53:15.779Z,70.56
2023-12-17T11:55:53.456Z,71.38
2023-12-17T11:58:22.624Z,71.06
2023-12-17T12:01:10.712Z,71.59
2023-12-17T12:03:39.013Z,69.76
2023-12-17T12:06:11.832Z,69.13
2023-12-17T12:08:43.977Z,69.35
2023-12-17T12:11:15.179Z,69.28
2023-12-17T12:13:46.407Z,67.37
2023-12-17T12:16:13.770Z,67.13
2023-12-17T12:18:40.702Z,66.85
2023-12-17T12:21:22.866Z,65.04
2023-12-17T12:23:51.548Z,66.30
2023-12-17T12:26:19.852Z,66.46
2023-12-17T12:28:51.426Z,65.14
2023-12-17T12:31:18.032Z,64.11
2023-12-17T12:33:59.748Z,64.91
2023-12-17T12:36:27.373Z,64.83
2023-12-17T12:39:02.117Z,63.01
2023-12-17T12:41:30.021Z,63.76
2023-12-17T12:43:57.353Z,63.58
2023-12-17T12:46:23.902Z,64.93
2023-12-17T12:48:57.760Z,65.86
2023-12-17T12:51:25.925Z,65.69
2023-12-17T12:53:52.871Z,64.71
2023-12-17T12:56:20.435Z,66.51
2023-12-17T12:58:48.020Z,65.91
2023-12-17T13:01:14.607Z,67.25
2023-12-17T13:03:41.275Z,66.23
2023-12-17T13:06:08.186Z,67.96
2023-12-17T13:08:34.677Z,67.72
2023-12-17T13:11:01.131Z,68.43
2023-12-17T13:13:27.980Z,68.56
2023-12-17T13:15:54.345Z,69.00
2023-12-17T13:18:20.948Z,70.25
2023-12-17T13:20:47.521Z,72.04
2023-12-17T13:23:13.864Z,71.00
2023-12-17T13:25:40.301Z,71.13
2023-12-17T13:28:07.278Z,70.30
2023-12-17T13:30:35.248Z,71.46
2023-12-17T13:33:05.227Z,70.68
2023-12-17T13:35:31.916Z,72.36
2023-12-17T13:37:58.484Z,71.52
2023-12-17T13:40:24.870Z,72.23
2023-12-17T13:42:51.562Z,71.60
2023-12-17T13:45:18.491Z,71.78
2023-12-17T13:47:45.405Z,71.96
2023-12-17T13:50:13.469Z,74.04
2023-12-17T13:52:40.098Z,74.24
2023-12-17T13:55:09.130Z,73.85
2023-12-17T13:57:37.273Z,75.73
2023-12-17T14:00:05.924Z,75.18
2023-12-17T14:02:32.362Z,74.56
2023-12-17T14:04:59.029Z,75.73
2023-12-17T14:07:26.800Z,75.79
2023-12-17T14:09:53.257Z,76.74
2023-12-17T14:12:19.912Z,75.79
2023-12-17T14:14:47.847Z,77.18
2023-12-17T14:17:14.360Z,77.89
2023-12-17T14:19:40.811Z,78.15
2023-12-17T14:22:07.356Z,78.67
2023-12-17T14:24:33.795Z,78.92
2023-12-17T14:27:00.497Z,77.90
2023-12-17T14:29:26.943Z,78.38
2023-12-17T14:31:54.819Z,79.01
2023-12-17T14:34:21.449Z,78.92
2023-12-17T14:36:48.175Z,78.40
2023-12-17T14:39:14.925Z,77.96
2023-12-17T14:41:41.569Z,78.19
2023-12-17T14:44:08.092Z,76.78
2023-12-17T14:46:34.486Z,76.99
2023-12-17T14:49:01.161Z,75.78
2023-12-17T14:51:28.897Z,73.79
2023-12-17T14:53:58.773Z,72.56
2023-12-17T14:56:26.056Z,76.63
2023-12-17T14:58:57.467Z,76.12
2023-12-17T15:01:34.265Z,76.34
2023-12-17T15:04:02.662Z,79.08
2023-12-17T15:06:29.264Z,79.77
2023-12-17T15:08:56.766Z,80.38
2023-12-17T15:11:23.770Z,79.80
2023-12-17T15:13:50.169Z,79.85
2023-12-17T15:16:17.144Z,81.46
2023-12-17T15:18:43.715Z,82.81
2023-12-17T15:21:15.600Z,83.03
2023-12-17T15:23:42.072Z,83.04
2023-12-17T15:26:08.493Z,85.07
2023-12-17T15:28:34.930Z,83.91
2023-12-17T15:31:01.392Z,84.79
2023-12-17T15:33:28.142Z,85.58
2023-12-17T15:35:54.645Z,82.84
2023-12-17T15:38:21.853Z,84.49
2023-12-17T15:40:48.291Z,86.51
2023-12-17T15:43:14.641Z,85.29
2023-12-17T15:45:41.073Z,86.19
2023-12-17T15:48:07.605Z,87.47
2023-12-17T15:50:34.026Z,86.79
2023-12-17T15:53:00.380Z,85.32
2023-12-17T15:55:27.051Z,85.99
2023-12-17T15:57:53.540Z,85.84
2023-12-17T16:00:20.324Z,86.82
2023-12-17T16:02:47.313Z,86.44
2023-12-17T16:05:14.439Z,86.76
2023-12-17T16:07:48.960Z,86.96
2023-12-17T16:10:15.459Z,87.15
2023-12-17T16:12:42.351Z,88.03
2023-12-17T16:15:10.915Z,88.76
2023-12-17T16:17:37.721Z,88.80
2023-12-17T16:20:04.479Z,88.43
2023-12-17T16:22:30.941Z,88.60
2023-12-17T16:24:57.291Z,89.02
2023-12-17T16:27:23.711Z,90.11
2023-12-17T16:29:50.120Z,88.83
2023-12-17T16:32:16.710Z,90.31
2023-12-17T16:34:43.108Z,89.22
2023-12-17T16:37:09.506Z,89.16
2023-12-17T16:39:35.874Z,89.89
2023-12-17T16:42:02.288Z,89.91
2023-12-17T16:44:29.906Z,90.24
2023-12-17T16:46:56.241Z,90.99
2023-12-17T16:49:22.666Z,91.04
2023-12-17T16:51:49.148Z,91.40
2023-12-17T16:54:15.588Z,91.62
2023-12-17T16:56:42.815Z,92.11
2023-12-17T16:59:09.186Z,92.60
2023-12-17T17:01:35.607Z,92.95
2023-12-17T17:04:02.078Z,93.62
2023-12-17T17:06:28.520Z,94.21
2023-12-17T17:08:54.889Z,93.87
2023-12-17T17:11:22.286Z,95.07
2023-12-17T17:13:48.658Z,92.88
2023-12-17T17:16:15.131Z,94.13
2023-12-17T17:18:41.682Z,95.02
2023-12-17T17:21:08.839Z,95.53
2023-12-17T17:23:35.183Z,95.93
2023-12-17T17:26:01.612Z,93.28
2023-12-17T17:28:28.173Z,94.64
2023-12-17T17:30:54.805Z,94.23
2023-12-17T17:33:22.961Z,94.75
2023-12-17T17:35:50.069Z,95.47
2023-12-17T17:38:16.406Z,95.42
2023-12-17T17:40:42.818Z,95.69
2023-12-17T17:43:09.350Z,95.04
2023-12-17T17:45:35.845Z,94.55
2023-12-17T17:48:02.405Z,95.96
2023-12-17T17:50:28.895Z,95.59
2023-12-17T17:52:55.286Z,95.41
2023-12-17T17:55:22.081Z,95.91
2023-12-17T17:57:48.438Z,97.04
2023-12-17T18:00:17.148Z,95.26
2023-12-17T18:02:43.704Z,96.48
2023-12-17T18:05:10.322Z,96.70
2023-12-17T18:07:36.751Z,95.69
2023-12-17T18:10:03.316Z,96.20
2023-12-17T18:12:29.726Z,96.32
2023-12-17T18:14:56.221Z,95.67
2023-12-17T18:17:22.624Z,95.73
2023-12-17T18:19:49.054Z,95.47
2023-12-17T18:22:15.484Z,95.74
2023-12-17T18:24:41.864Z,95.83
2023-12-17T18:27:09.168Z,96.46
2023-12-17T18:29:35.845Z,96.64
2023-12-17T18:32:02.431Z,96.31
2023-12-17T18:34:29.372Z,96.78
2023-12-17T18:36:56.169Z,96.38
2023-12-17T18:39:22.694Z,96.46
2023-12-17T18:41:50.315Z,96.23
2023-12-17T18:44:16.738Z,96.37
2023-12-17T18:46:43.232Z,96.18
2023-12-17T18:49:09.760Z,95.50
2023-12-17T18:51:41.923Z,96.14
2023-12-17T18:54:08.873Z,96.76
2023-12-17T18:56:35.439Z,95.50
2023-12-17T18:59:01.793Z,96.02
2023-12-17T19:01:28.419Z,96.46
2023-12-17T19:03:54.961Z,96.67
2023-12-17T19:06:21.654Z,96.26
2023-12-17T19:08:48.133Z,96.27
2023-12-17T19:11:14.834Z,96.07
2023-12-17T19:13:41.200Z,96.47
2023-12-17T19:16:08.989Z,95.77
2023-12-17T19:18:37.599Z,96.10
2023-12-17T19:21:04.316Z,95.82
2023-12-17T19:23:31.368Z,95.54
2023-12-17T19:25:58.765Z,96.47
2023-12-17T19:28:25.131Z,96.44
2023-12-17T19:30:52.306Z,95.37
2023-12-17T19:33:20.041Z,95.52
2023-12-17T19:35:46.428Z,97.08
2023-12-17T19:38:13.526Z,97.91
2023-12-17T19:40:39.917Z,96.27
2023-12-17T19:43:06.305Z,94.56
2023-12-17T19:45:32.740Z,94.82
2023-12-17T19:47:59.621Z,95.42
2023-12-17T19:50:26.164Z,95.28
2023-12-17T19:52:52.605Z,95.57
2023-12-17T19:55:18.988Z,96.27
2023-12-17T19:57:46.009Z,96.75
2023-12-17T20:00:12.780Z,96.65
2023-12-17T20:02:41.583Z,97.51
2023-12-17T20:05:08.474Z,96.18
2023-12-17T20:07:35.107Z,95.45
2023-12-17T20:10:01.879Z,96.28
2023-12-17T20:12:28.336Z,96.81
2023-12-17T20:14:54.714Z,97.39
2023-12-17T20:17:21.605Z,97.65
2023-12-17T20:19:48.086Z,96.53
2023-12-17T20:22:14.522Z,96.72
2023-12-17T20:24:40.955Z,96.67
2023-12-17T20:27:07.384Z,97.74
2023-12-17T20:29:33.806Z,96.79
2023-12-17T20:32:00.195Z,96.92
2023-12-17T20:34:28.294Z,96.50
2023-12-17T20:36:54.836Z,96.65
2023-12-17T20:39:21.309Z,97.17
2023-12-17T20:41:47.909Z,97.46
2023-12-17T20:44:14.533Z,97.34
2023-12-17T20:46:40.949Z,97.51
2023-12-17T20:49:08.302Z,96.91
2023-12-17T20:51:34.915Z,97.73
2023-12-17T20:54:01.349Z,98.08
2023-12-17T20:56:27.769Z,98.17
2023-12-17T20:58:56.675Z,98.06
2023-12-17T21:01:23.089Z,97.83
2023-12-17T21:03:50.005Z,98.36
2023-12-17T21:06:23.004Z,97.92
2023-12-17T21:08:49.572Z,97.58
2023-12-17T21:11:16.711Z,98.47
2023-12-17T21:13:43.087Z,98.51
2023-12-17T21:16:09.435Z,97.49
2023-12-17T21:18:36.100Z,97.22
2023-12-17T21:21:02.561Z,96.81
2023-12-17T21:23:29.142Z,96.73
2023-12-17T21:25:55.573Z,96.92
2023-12-17T21:28:22.252Z,97.10
2023-12-17T21:30:50.425Z,98.03
2023-12-17T21:33:16.948Z,98.13
2023-12-17T21:35:43.512Z,97.80
2023-12-17T21:38:10.346Z,97.64
2023-12-17T21:40:36.846Z,97.58
2023-12-17T21:43:03.342Z,97.79
2023-12-17T21:45:29.878Z,97.56
2023-12-17T21:47:56.534Z,97.82
2023-12-17T21:50:23.021Z,98.22
2023-12-17T21:52:49.533Z,97.51
2023-12-17T21:55:16.056Z,97.41
2023-12-17T21:57:43.947Z,98.04
2023-12-17T22:00:18.633Z,96.86
2023-12-17T22:02:46.078Z,97.08
2023-12-17T22:05:12.757Z,96.86
2023-12-17T22:07:39.292Z,96.70
2023-12-17T22:10:07.314Z,96.94
2023-12-17T22:12:33.802Z,95.29
2023-12-17T22:15:00.338Z,96.17
2023-12-17T22:17:26.877Z,96.78
2023-12-17T22:19:53.413Z,95.58
2023-12-17T22:22:20.263Z,95.87
2023-12-17T22:24:46.638Z,96.98
2023-12-17T22:27:13.072Z,96.28
2023-12-17T22:29:39.426Z,96.04
2023-12-17T22:32:06.006Z,96.04
2023-12-17T22:34:33.954Z,96.85
2023-12-17T22:37:00.590Z,96.71
2023-12-17T22:39:26.970Z,96.78
2023-12-17T22:41:53.378Z,97.89
2023-12-17T22:44:20.797Z,97.10
2023-12-17T22:46:47.559Z,97.83
2023-12-17T22:49:14.027Z,96.48
2023-12-17T22:51:40.477Z,96.96
2023-12-17T22:54:07.117Z,95.22
2023-12-17T22:56:37.648Z,95.56
2023-12-17T22:59:04.871Z,96.24
2023-12-17T23:01:31.965Z,97.28
2023-12-17T23:03:58.416Z,96.30
2023-12-17T23:06:26.354Z,97.03
2023-12-17T23:08:52.734Z,96.12
2023-12-17T23:11:22.057Z,96.18
2023-12-17T23:13:48.554Z,96.61
2023-12-17T23:16:14.913Z,96.86
2023-12-17T23:18:41.377Z,97.35
2023-12-17T23:21:07.846Z,97.64
2023-12-17T23:23:34.596Z,97.26
2023-12-17T23:26:00.955Z,97.79
2023-12-17T23:28:27.343Z,97.77
2023-12-17T23:30:53.817Z,97.55
2023-12-17T23:33:20.757Z,97.01
2023-12-17T23:35:47.272Z,97.56
2023-12-17T23:38:13.841Z,97.18
2023-12-17T23:40:40.192Z,96.78
2023-12-17T23:43:06.801Z,95.22
2023-12-17T23:45:33.327Z,97.35
2023-12-17T23:47:59.841Z,97.36
2023-12-17T23:50:26.297Z,97.22
2023-12-17T23:52:52.703Z,96.81
2023-12-17T23:55:19.076Z,97.34
2023-12-17T23:57:46.059Z,96.97
